首页
METAR-TAF:

METAR-TAF

机场 :

伊丽莎白市, 北卡罗来纳州, 美国

纬度: 36-15-47N, 经度: 076-10-58W, 海拔: 3米

当前天气观测

该预报发布于25分钟前的10:54 UTC
风速3节,风向南转西南
温度 12°C
湿度 71%
气压 1015 hPa
能見度: 16.1公里
天空无云

METAR: KECG 211054Z 20003KT 10SM CLR 12/07 A2998 RMK AO2 SLP151 T01170072

时间: 07:19 (11:19 UTC)

预报

该预报发布于2小时和58分钟前的08:21 UTC
预报有效从21日的 08点(UTC)到 22日的 06点(UTC)
风速3节,风向南转西南
能見度: 10公里
阴天层高于7000英尺
从 21日的 1700点(UTC)
风速8节,风向
能見度: 10公里
散云层高于10000英尺
从 21日的 2200点(UTC)
风速5节,风向东南
能見度: 10公里
散云层高于3000英尺
多云层高于5000英尺

TAF: KECG 210821Z 2108/2206 20003KT P6SM OVC070 FM211700 18008KT P6SM SCT100 FM212200 13005KT P6SM SCT030 BKN050

超过4000个机场的气象观测和天气预报(METAR&TAF报告)。

可查询的气象台以黄色和红色小点在地图上表示。

将鼠标移到小点上方,可查看气象台名称。

然后点击查看天气观测和预报。

如需切换地图:点击带黑十字的绿色按钮放大地图;点击带横线的绿色按钮缩小地图;或者点击绿色箭头查看邻近地区的地图。


METAR-TAF: